sensor_id;sensor_type;location;lat;lon;timestamp;pressure;altitude;pressure_sealevel;temperature;humidity
65553;BME280;72126;51.560;14.368;2023-10-09T00:01:52;100950.00;;;19.32;52.12
65553;BME280;72126;51.560;14.368;2023-10-09T00:04:18;100937.94;;;19.29;52.30
65553;BME280;72126;51.560;14.368;2023-10-09T00:06:43;100929.16;;;19.29;52.28
65553;BME280;72126;51.560;14.368;2023-10-09T00:09:09;100931.81;;;19.29;52.35
65553;BME280;72126;51.560;14.368;2023-10-09T00:11:35;100924.03;;;19.27;52.33
65553;BME280;72126;51.560;14.368;2023-10-09T00:14:00;100922.00;;;19.29;52.27
65553;BME280;72126;51.560;14.368;2023-10-09T00:16:25;100914.03;;;19.29;52.25
65553;BME280;72126;51.560;14.368;2023-10-09T00:18:51;100908.13;;;19.27;52.39
65553;BME280;72126;51.560;14.368;2023-10-09T00:21:17;100906.28;;;19.28;52.29
65553;BME280;72126;51.560;14.368;2023-10-09T00:23:42;100899.13;;;19.28;52.53
65553;BME280;72126;51.560;14.368;2023-10-09T00:26:08;100890.34;;;19.28;52.25
65553;BME280;72126;51.560;14.368;2023-10-09T00:28:35;100896.69;;;19.27;52.29
65553;BME280;72126;51.560;14.368;2023-10-09T00:31:00;100891.38;;;19.27;52.28
65553;BME280;72126;51.560;14.368;2023-10-09T00:33:27;100896.69;;;19.27;52.42
65553;BME280;72126;51.560;14.368;2023-10-09T00:35:53;100888.72;;;19.27;52.51
65553;BME280;72126;51.560;14.368;2023-10-09T00:38:18;100895.06;;;19.26;52.50
65553;BME280;72126;51.560;14.368;2023-10-09T00:40:43;100893.22;;;19.26;52.37
65553;BME280;72126;51.560;14.368;2023-10-09T00:43:08;100904.84;;;19.25;52.44
65553;BME280;72126;51.560;14.368;2023-10-09T00:45:33;100903.00;;;19.26;52.34
65553;BME280;72126;51.560;14.368;2023-10-09T00:47:59;100903.00;;;19.26;52.58
65553;BME280;72126;51.560;14.368;2023-10-09T00:50:24;100903.19;;;19.24;52.32
65553;BME280;72126;51.560;14.368;2023-10-09T00:52:55;100888.28;;;19.23;52.47
65553;BME280;72126;51.560;14.368;2023-10-09T00:55:22;100897.88;;;19.24;52.36
65553;BME280;72126;51.560;14.368;2023-10-09T00:57:50;100900.75;;;19.23;52.47
65553;BME280;72126;51.560;14.368;2023-10-09T01:00:17;100914.00;;;19.23;52.35
65553;BME280;72126;51.560;14.368;2023-10-09T01:02:42;100912.19;;;19.23;52.66
65553;BME280;72126;51.560;14.368;2023-10-09T01:05:08;100904.22;;;19.23;52.37
65553;BME280;72126;51.560;14.368;2023-10-09T01:07:34;100902.59;;;19.22;52.38
65553;BME280;72126;51.560;14.368;2023-10-09T01:09:59;100901.75;;;19.22;52.40
65553;BME280;72126;51.560;14.368;2023-10-09T01:12:24;100902.59;;;19.22;52.63
65553;BME280;72126;51.560;14.368;2023-10-09T01:14:50;100892.97;;;19.21;52.61
65553;BME280;72126;51.560;14.368;2023-10-09T01:17:15;100900.94;;;19.21;52.56
65553;BME280;72126;51.560;14.368;2023-10-09T01:19:40;100887.69;;;19.21;52.56
65553;BME280;72126;51.560;14.368;2023-10-09T01:22:05;100892.16;;;19.21;52.42
65553;BME280;72126;51.560;14.368;2023-10-09T01:24:30;100891.16;;;19.22;52.72
65553;BME280;72126;51.560;14.368;2023-10-09T01:26:55;100886.84;;;19.21;52.65
65553;BME280;72126;51.560;14.368;2023-10-09T01:29:22;100876.44;;;19.19;52.62
65553;BME280;72126;51.560;14.368;2023-10-09T01:31:50;100866.81;;;19.18;52.62
65553;BME280;72126;51.560;14.368;2023-10-09T01:34:15;100869.31;;;19.20;52.52
65553;BME280;72126;51.560;14.368;2023-10-09T01:36:41;100861.50;;;19.18;52.71
65553;BME280;72126;51.560;14.368;2023-10-09T01:39:06;100856.19;;;19.18;52.52
65553;BME280;72126;51.560;14.368;2023-10-09T01:41:31;100848.25;;;19.18;52.67
65553;BME280;72126;51.560;14.368;2023-10-09T01:43:56;100837.00;;;19.16;52.78
65553;BME280;72126;51.560;14.368;2023-10-09T01:46:21;100836.00;;;19.17;52.75
65553;BME280;72126;51.560;14.368;2023-10-09T01:48:47;100827.22;;;19.17;52.60
65553;BME280;72126;51.560;14.368;2023-10-09T01:51:15;100814.75;;;19.17;52.70
65553;BME280;72126;51.560;14.368;2023-10-09T01:53:40;100791.88;;;19.16;52.44
65553;BME280;72126;51.560;14.368;2023-10-09T01:56:10;100793.94;;;19.14;52.55
65553;BME280;72126;51.560;14.368;2023-10-09T01:58:35;100792.72;;;19.17;52.63
65553;BME280;72126;51.560;14.368;2023-10-09T02:01:00;100788.22;;;19.17;52.61
65553;BME280;72126;51.560;14.368;2023-10-09T02:03:25;100784.94;;;19.15;52.66
65553;BME280;72126;51.560;14.368;2023-10-09T02:05:51;100785.97;;;19.14;52.61
65553;BME280;72126;51.560;14.368;2023-10-09T02:08:17;100785.97;;;19.14;52.67
65553;BME280;72126;51.560;14.368;2023-10-09T02:10:42;100784.53;;;19.12;52.77
65553;BME280;72126;51.560;14.368;2023-10-09T02:13:07;100786.97;;;19.13;52.79
65553;BME280;72126;51.560;14.368;2023-10-09T02:15:38;100785.16;;;19.14;52.77
65553;BME280;72126;51.560;14.368;2023-10-09T02:18:03;100776.34;;;19.13;52.83
65553;BME280;72126;51.560;14.368;2023-10-09T02:20:28;100763.09;;;19.13;52.85
65553;BME280;72126;51.560;14.368;2023-10-09T02:22:54;100751.66;;;19.13;52.96
65553;BME280;72126;51.560;14.368;2023-10-09T02:25:19;100744.50;;;19.13;52.92
65553;BME280;72126;51.560;14.368;2023-10-09T02:27:44;100726.94;;;19.12;52.74
65553;BME280;72126;51.560;14.368;2023-10-09T02:30:10;100717.97;;;19.13;52.92
65553;BME280;72126;51.560;14.368;2023-10-09T02:32:35;100716.34;;;19.12;52.82
65553;BME280;72126;51.560;14.368;2023-10-09T02:35:02;100696.94;;;19.12;52.99
65553;BME280;72126;51.560;14.368;2023-10-09T02:37:27;100699.81;;;19.10;52.78
65553;BME280;72126;51.560;14.368;2023-10-09T02:39:52;100681.22;;;19.10;52.93
65553;BME280;72126;51.560;14.368;2023-10-09T02:42:18;100672.25;;;19.11;52.73
65553;BME280;72126;51.560;14.368;2023-10-09T02:44:43;100660.81;;;19.11;53.06
65553;BME280;72126;51.560;14.368;2023-10-09T02:47:08;100644.06;;;19.10;52.77
65553;BME280;72126;51.560;14.368;2023-10-09T02:49:33;100637.13;;;19.09;52.76
65553;BME280;72126;51.560;14.368;2023-10-09T02:51:58;100616.72;;;19.10;52.86
65553;BME280;72126;51.560;14.368;2023-10-09T02:54:24;100608.97;;;19.08;53.03
65553;BME280;72126;51.560;14.368;2023-10-09T02:56:51;100599.34;;;19.07;52.98
65553;BME280;72126;51.560;14.368;2023-10-09T02:59:17;100586.09;;;19.07;52.96
65553;BME280;72126;51.560;14.368;2023-10-09T03:01:42;100598.53;;;19.07;52.81
65553;BME280;72126;51.560;14.368;2023-10-09T03:04:07;100591.59;;;19.06;52.87
65553;BME280;72126;51.560;14.368;2023-10-09T03:06:33;100580.78;;;19.07;52.93
65553;BME280;72126;51.560;14.368;2023-10-09T03:08:58;100587.09;;;19.06;52.97
65553;BME280;72126;51.560;14.368;2023-10-09T03:11:24;100572.22;;;19.05;53.25
65553;BME280;72126;51.560;14.368;2023-10-09T03:13:49;100558.72;;;19.07;53.10
65553;BME280;72126;51.560;14.368;2023-10-09T03:16:15;100554.44;;;19.06;53.12
65553;BME280;72126;51.560;14.368;2023-10-09T03:18:40;100528.34;;;19.02;53.00
65553;BME280;72126;51.560;14.368;2023-10-09T03:21:05;100529.75;;;19.05;52.80
65553;BME280;72126;51.560;14.368;2023-10-09T03:23:30;100544.03;;;19.04;52.85
65553;BME280;72126;51.560;14.368;2023-10-09T03:25:56;100538.75;;;19.04;53.11
65553;BME280;72126;51.560;14.368;2023-10-09T03:28:21;100545.06;;;19.03;53.00
65553;BME280;72126;51.560;14.368;2023-10-09T03:30:46;100553.84;;;19.03;52.83
65553;BME280;72126;51.560;14.368;2023-10-09T03:33:11;100575.91;;;19.04;53.10
65553;BME280;72126;51.560;14.368;2023-10-09T03:35:36;100590.19;;;19.03;52.91
65553;BME280;72126;51.560;14.368;2023-10-09T03:38:02;100606.09;;;19.03;53.05
65553;BME280;72126;51.560;14.368;2023-10-09T03:40:27;100602.81;;;19.01;53.14
65553;BME280;72126;51.560;14.368;2023-10-09T03:42:53;100593.03;;;19.01;53.06
65553;BME280;72126;51.560;14.368;2023-10-09T03:45:20;100590.38;;;19.01;53.14
65553;BME280;72126;51.560;14.368;2023-10-09T03:47:45;100570.97;;;19.01;53.07
65553;BME280;72126;51.560;14.368;2023-10-09T03:50:10;100565.66;;;19.01;53.09
65553;BME280;72126;51.560;14.368;2023-10-09T03:52:35;100548.72;;;19.02;53.21
65553;BME280;72126;51.560;14.368;2023-10-09T03:55:00;100555.06;;;19.01;53.07
65553;BME280;72126;51.560;14.368;2023-10-09T03:57:26;100558.75;;;19.00;53.01
65553;BME280;72126;51.560;14.368;2023-10-09T03:59:51;100550.78;;;19.00;52.96
65553;BME280;72126;51.560;14.368;2023-10-09T04:02:16;100542.22;;;18.98;53.25
65553;BME280;72126;51.560;14.368;2023-10-09T04:04:42;100549.16;;;18.99;53.00
65553;BME280;72126;51.560;14.368;2023-10-09T04:07:07;100547.31;;;18.99;53.02
65553;BME280;72126;51.560;14.368;2023-10-09T04:09:33;100542.81;;;19.00;53.10
65553;BME280;72126;51.560;14.368;2023-10-09T04:11:58;100532.41;;;18.98;52.99
65553;BME280;72126;51.560;14.368;2023-10-09T04:14:24;100524.47;;;18.98;53.10
65553;BME280;72126;51.560;14.368;2023-10-09T04:16:50;100503.22;;;18.98;53.21
65553;BME280;72126;51.560;14.368;2023-10-09T04:19:15;100497.13;;;18.98;52.97
65553;BME280;72126;51.560;14.368;2023-10-09T04:21:40;100484.88;;;18.97;53.10
65553;BME280;72126;51.560;14.368;2023-10-09T04:24:07;100468.09;;;18.96;53.05
65553;BME280;72126;51.560;14.368;2023-10-09T04:26:32;100458.34;;;18.97;53.07
65553;BME280;72126;51.560;14.368;2023-10-09T04:29:01;100448.94;;;18.94;53.38
65553;BME280;72126;51.560;14.368;2023-10-09T04:31:26;100444.44;;;18.95;53.30
65553;BME280;72126;51.560;14.368;2023-10-09T04:33:51;100439.94;;;18.95;53.08
65553;BME280;72126;51.560;14.368;2023-10-09T04:36:16;100440.97;;;18.94;53.31
65553;BME280;72126;51.560;14.368;2023-10-09T04:38:42;100435.66;;;18.94;53.20
65553;BME280;72126;51.560;14.368;2023-10-09T04:41:07;100435.66;;;18.94;53.11
65553;BME280;72126;51.560;14.368;2023-10-09T04:43:32;100429.56;;;18.94;53.32
65553;BME280;72126;51.560;14.368;2023-10-09T04:45:58;100419.97;;;18.93;53.26
65553;BME280;72126;51.560;14.368;2023-10-09T04:48:23;100419.75;;;18.94;53.16
65553;BME280;72126;51.560;14.368;2023-10-09T04:50:50;100400.38;;;18.94;53.17
65553;BME280;72126;51.560;14.368;2023-10-09T04:53:15;100382.84;;;18.93;53.15
65553;BME280;72126;51.560;14.368;2023-10-09T04:55:40;100375.69;;;18.93;53.14
65553;BME280;72126;51.560;14.368;2023-10-09T04:58:06;100361.59;;;18.93;53.41
65553;BME280;72126;51.560;14.368;2023-10-09T05:00:31;100346.72;;;18.92;53.08
65553;BME280;72126;51.560;14.368;2023-10-09T05:03:00;100356.50;;;18.91;53.12
65553;BME280;72126;51.560;14.368;2023-10-09T05:05:27;100353.03;;;18.91;53.17
65553;BME280;72126;51.560;14.368;2023-10-09T05:07:53;100348.56;;;18.91;53.31
65553;BME280;72126;51.560;14.368;2023-10-09T05:10:18;100358.31;;;18.91;53.33
65553;BME280;72126;51.560;14.368;2023-10-09T05:12:43;100351.41;;;18.90;53.43
65553;BME280;72126;51.560;14.368;2023-10-09T05:15:08;100354.06;;;18.90;53.39
65553;BME280;72126;51.560;14.368;2023-10-09T05:17:35;100349.78;;;18.89;53.32
65553;BME280;72126;51.560;14.368;2023-10-09T05:20:01;100344.47;;;18.89;53.29
65553;BME280;72126;51.560;14.368;2023-10-09T05:22:26;100343.66;;;18.88;53.15
65553;BME280;72126;51.560;14.368;2023-10-09T05:24:51;100333.84;;;18.89;53.17
65553;BME280;72126;51.560;14.368;2023-10-09T05:27:16;100336.72;;;18.87;53.39
65553;BME280;72126;51.560;14.368;2023-10-09T05:29:41;100337.53;;;18.88;53.24
65553;BME280;72126;51.560;14.368;2023-10-09T05:32:07;100339.16;;;18.89;53.29
65553;BME280;72126;51.560;14.368;2023-10-09T05:34:32;100346.53;;;18.87;53.29
65553;BME280;72126;51.560;14.368;2023-10-09T05:36:57;100348.16;;;18.88;53.33
65553;BME280;72126;51.560;14.368;2023-10-09T05:39:22;100361.41;;;18.88;53.37
65553;BME280;72126;51.560;14.368;2023-10-09T05:41:48;100363.25;;;18.87;53.58
65553;BME280;72126;51.560;14.368;2023-10-09T05:44:13;100368.78;;;18.86;53.39
65553;BME280;72126;51.560;14.368;2023-10-09T05:46:39;100381.00;;;18.87;53.36
65553;BME280;72126;51.560;14.368;2023-10-09T05:49:04;100390.81;;;18.86;53.30
65553;BME280;72126;51.560;14.368;2023-10-09T05:51:29;100388.16;;;18.86;53.48
65553;BME280;72126;51.560;14.368;2023-10-09T05:53:54;100382.03;;;18.86;53.55
65553;BME280;72126;51.560;14.368;2023-10-09T05:56:19;100375.88;;;18.85;53.39
65553;BME280;72126;51.560;14.368;2023-10-09T05:58:44;100370.00;;;18.83;53.39
65553;BME280;72126;51.560;14.368;2023-10-09T06:01:10;100357.78;;;18.75;53.44
65553;BME280;72126;51.560;14.368;2023-10-09T06:03:35;100357.53;;;18.84;53.22
65553;BME280;72126;51.560;14.368;2023-10-09T06:06:00;100365.72;;;18.82;53.12
65553;BME280;72126;51.560;14.368;2023-10-09T06:08:26;100364.09;;;18.81;53.40
65553;BME280;72126;51.560;14.368;2023-10-09T06:10:52;100368.38;;;18.82;53.49
65553;BME280;72126;51.560;14.368;2023-10-09T06:13:17;100378.75;;;18.84;53.43
65553;BME280;72126;51.560;14.368;2023-10-09T06:15:42;100386.94;;;18.82;53.40
65553;BME280;72126;51.560;14.368;2023-10-09T06:18:08;100393.88;;;18.83;53.48
65553;BME280;72126;51.560;14.368;2023-10-09T06:20:33;100386.94;;;18.82;53.35
65553;BME280;72126;51.560;14.368;2023-10-09T06:23:01;100387.75;;;18.83;53.34
65553;BME280;72126;51.560;14.368;2023-10-09T06:25:26;100387.97;;;18.81;53.38
65553;BME280;72126;51.560;14.368;2023-10-09T06:27:51;100391.44;;;18.82;53.57
65553;BME280;72126;51.560;14.368;2023-10-09T06:30:17;100390.63;;;18.81;53.63
65553;BME280;72126;51.560;14.368;2023-10-09T06:32:42;100384.28;;;18.82;53.58
65553;BME280;72126;51.560;14.368;2023-10-09T06:35:08;100383.69;;;18.80;53.50
65553;BME280;72126;51.560;14.368;2023-10-09T06:37:33;100395.09;;;18.81;53.67
65553;BME280;72126;51.560;14.368;2023-10-09T06:39:58;100395.09;;;18.81;53.59
65553;BME280;72126;51.560;14.368;2023-10-09T06:42:25;100403.25;;;18.79;53.66
65553;BME280;72126;51.560;14.368;2023-10-09T06:44:51;100400.59;;;18.79;53.56
65553;BME280;72126;51.560;14.368;2023-10-09T06:47:16;100399.78;;;18.79;53.44
65553;BME280;72126;51.560;14.368;2023-10-09T06:49:41;100400.81;;;18.77;53.58
65553;BME280;72126;51.560;14.368;2023-10-09T06:52:06;100399.78;;;18.79;53.58
65553;BME280;72126;51.560;14.368;2023-10-09T06:54:31;100401.03;;;18.76;53.26
65553;BME280;72126;51.560;14.368;2023-10-09T06:56:57;100395.50;;;18.77;53.41
65553;BME280;72126;51.560;14.368;2023-10-09T06:59:22;100398.16;;;18.77;53.48
65553;BME280;72126;51.560;14.368;2023-10-09T07:01:48;100405.31;;;18.77;53.34
65553;BME280;72126;51.560;14.368;2023-10-09T07:04:14;100403.69;;;18.76;53.55
65553;BME280;72126;51.560;14.368;2023-10-09T07:06:39;100412.44;;;18.76;53.47
65553;BME280;72126;51.560;14.368;2023-10-09T07:09:04;100399.59;;;18.73;53.61
65553;BME280;72126;51.560;14.368;2023-10-09T07:11:32;100414.28;;;18.76;53.60
65553;BME280;72126;51.560;14.368;2023-10-09T07:13:57;100417.16;;;18.74;53.58
65553;BME280;72126;51.560;14.368;2023-10-09T07:16:22;100415.31;;;18.75;53.48
65553;BME280;72126;51.560;14.368;2023-10-09T07:18:50;100413.66;;;18.74;53.70
65553;BME280;72126;51.560;14.368;2023-10-09T07:21:15;100404.69;;;18.75;53.47
65553;BME280;72126;51.560;14.368;2023-10-09T07:23:41;100409.19;;;18.74;53.71
65553;BME280;72126;51.560;14.368;2023-10-09T07:26:06;100411.84;;;18.74;53.48
65553;BME280;72126;51.560;14.368;2023-10-09T07:28:31;100402.22;;;18.73;53.55
65553;BME280;72126;51.560;14.368;2023-10-09T07:30:57;100404.88;;;18.73;53.67
65553;BME280;72126;51.560;14.368;2023-10-09T07:33:22;100399.59;;;18.73;53.62
65553;BME280;72126;51.560;14.368;2023-10-09T07:35:47;100407.75;;;18.72;53.60
65553;BME280;72126;51.560;14.368;2023-10-09T07:38:24;100411.22;;;18.72;53.73
65553;BME280;72126;51.560;14.368;2023-10-09T07:40:51;100411.22;;;18.72;53.60
65553;BME280;72126;51.560;14.368;2023-10-09T07:43:16;100403.25;;;18.72;53.51
65553;BME280;72126;51.560;14.368;2023-10-09T07:45:41;100400.59;;;18.72;53.65
65553;BME280;72126;51.560;14.368;2023-10-09T07:48:06;100384.91;;;18.64;53.77
65553;BME280;72126;51.560;14.368;2023-10-09T07:50:36;100398.97;;;18.71;53.64
65553;BME280;72126;51.560;14.368;2023-10-09T07:53:05;100410.41;;;18.72;53.83
65553;BME280;72126;51.560;14.368;2023-10-09T07:55:30;100415.28;;;18.68;53.68
65553;BME280;72126;51.560;14.368;2023-10-09T07:57:55;100407.16;;;18.70;53.63
65553;BME280;72126;51.560;14.368;2023-10-09T08:00:21;100405.31;;;18.70;53.80
65553;BME280;72126;51.560;14.368;2023-10-09T08:02:46;100411.44;;;18.71;53.55
65553;BME280;72126;51.560;14.368;2023-10-09T08:05:11;100407.16;;;18.70;53.66
65553;BME280;72126;51.560;14.368;2023-10-09T08:07:36;100411.66;;;18.69;53.66
65553;BME280;72126;51.560;14.368;2023-10-09T08:10:05;100406.09;;;18.64;53.69
65553;BME280;72126;51.560;14.368;2023-10-09T08:12:31;100408.19;;;18.69;53.67
65553;BME280;72126;51.560;14.368;2023-10-09T08:14:57;100418.78;;;18.69;53.53
65553;BME280;72126;51.560;14.368;2023-10-09T08:17:22;100410.84;;;18.69;53.72
65553;BME280;72126;51.560;14.368;2023-10-09T08:19:48;100417.94;;;18.68;53.68
65553;BME280;72126;51.560;14.368;2023-10-09T08:22:14;100424.09;;;18.69;53.85
65553;BME280;72126;51.560;14.368;2023-10-09T08:24:39;100407.34;;;18.68;53.80
65553;BME280;72126;51.560;14.368;2023-10-09T08:27:04;100409.19;;;18.68;53.82
65553;BME280;72126;51.560;14.368;2023-10-09T08:29:29;100409.19;;;18.68;53.68
65553;BME280;72126;51.560;14.368;2023-10-09T08:31:54;100411.81;;;18.68;53.53
65553;BME280;72126;51.560;14.368;2023-10-09T08:34:19;100400.81;;;18.64;53.69
65553;BME280;72126;51.560;14.368;2023-10-09T08:36:45;100407.31;;;18.62;53.75
65553;BME280;72126;51.560;14.368;2023-10-09T08:39:10;100418.78;;;18.69;53.61
65553;BME280;72126;51.560;14.368;2023-10-09T08:41:35;100411.03;;;18.67;53.69
65553;BME280;72126;51.560;14.368;2023-10-09T08:44:01;100411.41;;;18.64;54.01
65553;BME280;72126;51.560;14.368;2023-10-09T08:46:27;100418.13;;;18.67;53.84
65553;BME280;72126;51.560;14.368;2023-10-09T08:48:54;100415.47;;;18.67;53.88
65553;BME280;72126;51.560;14.368;2023-10-09T08:51:19;100421.81;;;18.66;53.64
65553;BME280;72126;51.560;14.368;2023-10-09T08:53:45;100428.94;;;18.65;53.78
65553;BME280;72126;51.560;14.368;2023-10-09T08:56:10;100434.25;;;18.65;53.96
65553;BME280;72126;51.560;14.368;2023-10-09T08:58:35;100432.63;;;18.64;53.84
65553;BME280;72126;51.560;14.368;2023-10-09T09:01:01;100429.75;;;18.66;53.66
65553;BME280;72126;51.560;14.368;2023-10-09T09:03:26;100435.88;;;18.66;53.78
65553;BME280;72126;51.560;14.368;2023-10-09T09:06:02;100448.31;;;18.66;53.81
65553;BME280;72126;51.560;14.368;2023-10-09T09:08:29;100454.66;;;18.65;53.97
65553;BME280;72126;51.560;14.368;2023-10-09T09:11:01;100454.66;;;18.65;53.82
65553;BME280;72126;51.560;14.368;2023-10-09T09:13:26;100446.69;;;18.65;53.77
65553;BME280;72126;51.560;14.368;2023-10-09T09:15:52;100444.06;;;18.65;53.97
65553;BME280;72126;51.560;14.368;2023-10-09T09:18:17;100443.22;;;18.64;53.92
65553;BME280;72126;51.560;14.368;2023-10-09T09:20:43;100432.81;;;18.63;53.83
65553;BME280;72126;51.560;14.368;2023-10-09T09:23:12;100425.69;;;18.63;53.93
65553;BME280;72126;51.560;14.368;2023-10-09T09:25:45;100428.34;;;18.63;53.83
65553;BME280;72126;51.560;14.368;2023-10-09T09:28:12;100423.03;;;18.63;53.80
65553;BME280;72126;51.560;14.368;2023-10-09T09:30:38;100438.97;;;18.63;53.91
65553;BME280;72126;51.560;14.368;2023-10-09T09:33:17;100442.59;;;18.62;54.00
65553;BME280;72126;51.560;14.368;2023-10-09T09:36:04;100433.66;;;18.63;53.95
65553;BME280;72126;51.560;14.368;2023-10-09T09:38:33;100441.59;;;18.63;53.91
65553;BME280;72126;51.560;14.368;2023-10-09T09:40:59;100435.47;;;18.63;53.95
65553;BME280;72126;51.560;14.368;2023-10-09T09:43:25;100437.31;;;18.62;54.05
65553;BME280;72126;51.560;14.368;2023-10-09T09:45:52;100433.84;;;18.62;54.06
65553;BME280;72126;51.560;14.368;2023-10-09T09:48:17;100434.66;;;18.62;53.98
65553;BME280;72126;51.560;14.368;2023-10-09T09:50:43;100421.19;;;18.57;53.97
65553;BME280;72126;51.560;14.368;2023-10-09T09:53:09;100433.84;;;18.62;54.10
65553;BME280;72126;51.560;14.368;2023-10-09T09:55:37;100422.63;;;18.60;53.76
65553;BME280;72126;51.560;14.368;2023-10-09T09:58:08;100428.53;;;18.62;53.72
65553;BME280;72126;51.560;14.368;2023-10-09T10:00:38;100411.81;;;18.61;54.03
65553;BME280;72126;51.560;14.368;2023-10-09T10:03:10;100413.66;;;18.61;53.97
65553;BME280;72126;51.560;14.368;2023-10-09T10:05:37;100410.19;;;18.60;53.87
65553;BME280;72126;51.560;14.368;2023-10-09T10:08:04;100410.19;;;18.60;53.83
65553;BME280;72126;51.560;14.368;2023-10-09T10:10:37;100414.69;;;18.60;54.05
65553;BME280;72126;51.560;14.368;2023-10-09T10:13:03;100417.53;;;18.58;53.79
65553;BME280;72126;51.560;14.368;2023-10-09T10:15:57;100419.75;;;18.61;54.07
65553;BME280;72126;51.560;14.368;2023-10-09T10:18:23;100430.59;;;18.60;53.81
65553;BME280;72126;51.560;14.368;2023-10-09T10:23:32;100424.47;;;18.59;54.01
65553;BME280;72126;51.560;14.368;2023-10-09T10:26:20;100435.28;;;18.58;54.17
65553;BME280;72126;51.560;14.368;2023-10-09T10:29:16;100427.13;;;18.59;53.98
65553;BME280;72126;51.560;14.368;2023-10-09T10:31:58;100424.47;;;18.59;54.03
65553;BME280;72126;51.560;14.368;2023-10-09T10:34:24;100419.16;;;18.59;53.79
65553;BME280;72126;51.560;14.368;2023-10-09T10:36:50;100428.16;;;18.58;53.95
65553;BME280;72126;51.560;14.368;2023-10-09T10:39:16;100436.91;;;18.59;54.16
65553;BME280;72126;51.560;14.368;2023-10-09T10:41:52;100429.13;;;18.57;54.05
65553;BME280;72126;51.560;14.368;2023-10-09T10:44:28;100432.81;;;18.56;54.11
65553;BME280;72126;51.560;14.368;2023-10-09T10:46:53;100433.44;;;18.58;53.92
65553;BME280;72126;51.560;14.368;2023-10-09T10:49:19;100435.28;;;18.58;54.16
65553;BME280;72126;51.560;14.368;2023-10-09T10:51:44;100447.53;;;18.59;53.88
65553;BME280;72126;51.560;14.368;2023-10-09T10:54:10;100441.00;;;18.48;53.99
65553;BME280;72126;51.560;14.368;2023-10-09T10:56:37;100448.53;;;18.58;54.10
65553;BME280;72126;51.560;14.368;2023-10-09T10:59:02;100448.53;;;18.58;54.10
65553;BME280;72126;51.560;14.368;2023-10-09T11:01:31;100441.59;;;18.57;54.11
65553;BME280;72126;51.560;14.368;2023-10-09T11:03:57;100437.94;;;18.58;54.04
65553;BME280;72126;51.560;14.368;2023-10-09T11:06:29;100420.59;;;18.55;54.03
65553;BME280;72126;51.560;14.368;2023-10-09T11:08:55;100426.50;;;18.57;54.12
65553;BME280;72126;51.560;14.368;2023-10-09T11:11:20;100423.84;;;18.57;54.06
65553;BME280;72126;51.560;14.368;2023-10-09T11:13:46;100429.97;;;18.58;54.03
65553;BME280;72126;51.560;14.368;2023-10-09T11:16:11;100428.31;;;18.57;53.86
65553;BME280;72126;51.560;14.368;2023-10-09T11:18:39;100427.72;;;18.55;54.16
65553;BME280;72126;51.560;14.368;2023-10-09T11:21:05;100438.94;;;18.57;54.17
65553;BME280;72126;51.560;14.368;2023-10-09T11:23:31;100429.56;;;18.54;54.20
65553;BME280;72126;51.560;14.368;2023-10-09T11:25:56;100429.13;;;18.57;53.77
65553;BME280;72126;51.560;14.368;2023-10-09T11:28:23;100426.50;;;18.57;54.28
65553;BME280;72126;51.560;14.368;2023-10-09T11:30:48;100415.06;;;18.57;54.00
65553;BME280;72126;51.560;14.368;2023-10-09T11:33:13;100412.41;;;18.57;54.33
65553;BME280;72126;51.560;14.368;2023-10-09T11:35:38;100416.91;;;18.56;54.05
65553;BME280;72126;51.560;14.368;2023-10-09T11:38:04;100405.72;;;18.54;54.26
65553;BME280;72126;51.560;14.368;2023-10-09T11:40:31;100408.16;;;18.56;54.28
65553;BME280;72126;51.560;14.368;2023-10-09T11:42:59;100399.16;;;18.50;54.08
65553;BME280;72126;51.560;14.368;2023-10-09T11:45:26;100404.69;;;18.55;54.37
65553;BME280;72126;51.560;14.368;2023-10-09T11:47:53;100405.50;;;18.56;53.97
65553;BME280;72126;51.560;14.368;2023-10-09T11:50:18;100395.09;;;18.54;54.17
65553;BME280;72126;51.560;14.368;2023-10-09T11:52:57;100396.94;;;18.54;54.29
65553;BME280;72126;51.560;14.368;2023-10-09T11:55:22;100394.50;;;18.52;54.25
65553;BME280;72126;51.560;14.368;2023-10-09T11:57:47;100393.25;;;18.55;54.28
65553;BME280;72126;51.560;14.368;2023-10-09T12:00:13;100397.75;;;18.54;54.28
65553;BME280;72126;51.560;14.368;2023-10-09T12:02:38;100405.09;;;18.52;54.02
65553;BME280;72126;51.560;14.368;2023-10-09T12:05:03;100410.41;;;18.52;54.15
65553;BME280;72126;51.560;14.368;2023-10-09T12:07:29;100406.91;;;18.51;54.29
65553;BME280;72126;51.560;14.368;2023-10-09T12:09:54;100399.16;;;18.50;54.17
65553;BME280;72126;51.560;14.368;2023-10-09T12:12:19;100394.91;;;18.49;54.40
65553;BME280;72126;51.560;14.368;2023-10-09T12:14:44;100391.44;;;18.48;54.35
65553;BME280;72126;51.560;14.368;2023-10-09T12:17:09;100396.72;;;18.48;54.31
65553;BME280;72126;51.560;14.368;2023-10-09T12:19:39;100389.59;;;18.49;54.31
65553;BME280;72126;51.560;14.368;2023-10-09T12:22:06;100388.78;;;18.48;54.23
65553;BME280;72126;51.560;14.368;2023-10-09T12:24:32;100386.34;;;18.47;54.17
65553;BME280;72126;51.560;14.368;2023-10-09T12:26:57;100391.44;;;18.48;54.24
65553;BME280;72126;51.560;14.368;2023-10-09T12:29:23;100391.81;;;18.45;54.14
65553;BME280;72126;51.560;14.368;2023-10-09T12:31:48;100392.03;;;18.44;54.43
65553;BME280;72126;51.560;14.368;2023-10-09T12:34:14;100391.44;;;18.42;54.48
65553;BME280;72126;51.560;14.368;2023-10-09T12:36:39;100384.31;;;18.42;54.47
65553;BME280;72126;51.560;14.368;2023-10-09T12:39:04;100375.94;;;18.39;54.45